createdAt,value
2019-01-13T00:00:11.945Z,41.09
2019-01-13T00:01:10.179Z,41.08
2019-01-13T00:02:10.336Z,41.07
2019-01-13T00:03:10.117Z,41.13
2019-01-13T00:04:10.294Z,41.1
2019-01-13T00:05:11.282Z,41.06
2019-01-13T00:06:10.216Z,41.07
2019-01-13T00:07:12.148Z,41.07
2019-01-13T00:08:11.050Z,41.07
2019-01-13T00:09:10.242Z,41.1
2019-01-13T00:10:10.721Z,41.05
2019-01-13T00:11:10.294Z,41.14
2019-01-13T00:12:12.125Z,41.07
2019-01-13T00:13:10.982Z,41.04
2019-01-13T00:14:11.058Z,41.11
2019-01-13T00:15:10.279Z,41.11
2019-01-13T00:16:10.674Z,41.09
2019-01-13T00:17:10.223Z,41.1
2019-01-13T00:18:10.704Z,41.11
2019-01-13T00:19:10.486Z,41.14
2019-01-13T00:20:10.504Z,41.12
2019-01-13T00:21:10.416Z,41.13
2019-01-13T00:22:10.462Z,41.1
2019-01-13T00:23:10.237Z,41.08
2019-01-13T00:24:10.238Z,41.16
2019-01-13T00:25:10.089Z,41.13
2019-01-13T00:26:10.655Z,41.14
2019-01-13T00:27:10.588Z,41.13
2019-01-13T00:28:10.696Z,41.14
2019-01-13T00:29:10.487Z,41.09
2019-01-13T00:30:10.702Z,41.11
2019-01-13T00:31:10.539Z,41.11
2019-01-13T00:32:10.686Z,41.11
2019-01-13T00:33:10.331Z,41.14
2019-01-13T00:34:10.541Z,41.11
2019-01-13T00:35:10.487Z,41.12
2019-01-13T00:36:11.370Z,41.12
2019-01-13T00:37:10.250Z,41.13
2019-01-13T00:38:10.561Z,41.14
2019-01-13T00:39:10.340Z,41.13
2019-01-13T00:40:10.605Z,41.2
2019-01-13T00:41:10.611Z,41.16
2019-01-13T00:42:10.066Z,41.13
2019-01-13T00:43:10.664Z,41.14
2019-01-13T00:44:10.949Z,41.14
2019-01-13T00:45:10.048Z,41.16
2019-01-13T00:46:10.528Z,41.16
2019-01-13T00:47:12.205Z,41.14
2019-01-13T00:48:10.227Z,41.13
2019-01-13T00:49:10.514Z,41.17
2019-01-13T00:50:10.646Z,41.15
2019-01-13T00:51:10.099Z,41.16
2019-01-13T00:52:10.267Z,41.17
2019-01-13T00:53:10.079Z,41.19
2019-01-13T00:54:10.134Z,41.22
2019-01-13T00:55:10.280Z,41.19
2019-01-13T00:56:10.451Z,41.19
2019-01-13T00:57:11.975Z,41.13
2019-01-13T00:58:10.871Z,41.19
2019-01-13T00:59:12.057Z,41.15
2019-01-13T01:00:10.176Z,41.16
2019-01-13T01:01:10.926Z,41.13
2019-01-13T01:02:10.609Z,41.21
2019-01-13T01:03:10.688Z,41.12
2019-01-13T01:04:10.178Z,41.15
2019-01-13T01:05:10.306Z,41.18
2019-01-13T01:06:10.369Z,41.19
2019-01-13T01:07:10.634Z,41.25
2019-01-13T01:08:10.545Z,41.23
2019-01-13T01:09:10.382Z,41.22
2019-01-13T01:10:10.223Z,41.22
2019-01-13T01:11:10.664Z,41.21
2019-01-13T01:12:10.409Z,41.15
2019-01-13T01:13:10.265Z,41.22
2019-01-13T01:14:10.634Z,41.18
2019-01-13T01:15:10.471Z,41.15
2019-01-13T01:16:10.449Z,41.2
2019-01-13T01:17:10.277Z,41.22
2019-01-13T01:18:10.198Z,41.19
2019-01-13T01:19:10.550Z,41.18
2019-01-13T01:20:10.858Z,41.21
2019-01-13T01:21:10.425Z,41.2
2019-01-13T01:22:10.146Z,41.17
2019-01-13T01:23:10.348Z,41.26
2019-01-13T01:24:12.068Z,41.29
2019-01-13T01:25:10.293Z,41.2
2019-01-13T01:26:10.197Z,41.16
2019-01-13T01:27:10.460Z,41.23
2019-01-13T01:28:10.894Z,41.3
2019-01-13T01:29:10.056Z,41.25
2019-01-13T01:30:10.257Z,41.22
2019-01-13T01:31:10.602Z,41.23
2019-01-13T01:32:10.195Z,41.17
2019-01-13T01:33:10.281Z,41.23
2019-01-13T01:34:10.646Z,41.28
2019-01-13T01:35:10.426Z,41.26
2019-01-13T01:36:10.239Z,41.21
2019-01-13T01:37:10.067Z,41.29
2019-01-13T01:38:10.128Z,41.27
2019-01-13T01:39:10.977Z,41.32
2019-01-13T01:40:10.101Z,41.25
2019-01-13T01:41:10.132Z,41.24
2019-01-13T01:42:10.670Z,41.31
2019-01-13T01:43:10.161Z,41.3
2019-01-13T01:44:10.160Z,41.35
2019-01-13T01:45:10.306Z,41.3
2019-01-13T01:46:10.222Z,41.26
2019-01-13T01:47:10.298Z,41.29
2019-01-13T01:48:10.938Z,41.35
2019-01-13T01:49:10.102Z,41.25
2019-01-13T01:50:10.339Z,41.33
2019-01-13T01:51:10.146Z,41.26
2019-01-13T01:52:10.207Z,41.28
2019-01-13T01:53:10.438Z,41.3
2019-01-13T01:54:10.215Z,41.39
2019-01-13T01:55:10.276Z,41.33
2019-01-13T01:56:11.054Z,41.32
2019-01-13T01:57:10.246Z,41.35
2019-01-13T01:58:10.603Z,41.27
2019-01-13T01:59:10.136Z,41.32
2019-01-13T02:00:10.132Z,41.32
2019-01-13T02:01:10.432Z,41.33
2019-01-13T02:02:10.374Z,41.31
2019-01-13T02:03:10.258Z,41.28
2019-01-13T02:04:10.111Z,41.36
2019-01-13T02:05:10.735Z,41.32
2019-01-13T02:06:10.316Z,41.36
2019-01-13T02:07:10.375Z,41.3
2019-01-13T02:08:10.594Z,41.34
2019-01-13T02:09:10.477Z,41.33
2019-01-13T02:10:10.193Z,41.36
2019-01-13T02:11:10.869Z,41.36
2019-01-13T02:12:10.256Z,41.32
2019-01-13T02:13:11.058Z,41.27
2019-01-13T02:14:10.619Z,41.41
2019-01-13T02:15:10.075Z,41.35
2019-01-13T02:16:10.059Z,41.36
2019-01-13T02:17:10.305Z,41.32
2019-01-13T02:18:10.064Z,41.31
2019-01-13T02:19:10.207Z,41.33
2019-01-13T02:20:10.386Z,41.39
2019-01-13T02:21:10.207Z,41.38
2019-01-13T02:22:10.138Z,41.3
2019-01-13T02:23:10.540Z,41.34
2019-01-13T02:24:10.484Z,41.37
2019-01-13T02:25:10.368Z,41.32
2019-01-13T02:26:10.237Z,41.39
2019-01-13T02:27:10.241Z,41.3
2019-01-13T02:28:10.394Z,41.32
2019-01-13T02:29:10.498Z,41.34
2019-01-13T02:30:10.557Z,41.35
2019-01-13T02:31:10.619Z,41.38
2019-01-13T02:32:10.347Z,41.35
2019-01-13T02:33:10.251Z,41.35
2019-01-13T02:34:10.644Z,41.35
2019-01-13T02:35:10.043Z,41.34
2019-01-13T02:36:10.477Z,41.33
2019-01-13T02:37:10.056Z,41.36
2019-01-13T02:38:10.371Z,41.38
2019-01-13T02:39:10.386Z,41.34
2019-01-13T02:40:10.698Z,41.31
2019-01-13T02:41:10.797Z,41.31
2019-01-13T02:42:10.637Z,41.36
2019-01-13T02:43:10.362Z,41.34
2019-01-13T02:44:10.165Z,41.33
2019-01-13T02:45:10.184Z,41.41
2019-01-13T02:46:10.437Z,41.38
2019-01-13T02:47:11.350Z,41.32
2019-01-13T02:48:10.535Z,41.37
2019-01-13T02:49:10.068Z,41.35
2019-01-13T02:50:10.227Z,41.32
2019-01-13T02:51:10.505Z,41.42
2019-01-13T02:52:10.474Z,41.41
2019-01-13T02:53:10.483Z,41.38
2019-01-13T02:54:10.277Z,41.41
2019-01-13T02:55:10.317Z,41.38
2019-01-13T02:56:10.121Z,41.45
2019-01-13T02:57:10.209Z,41.39
2019-01-13T02:58:10.750Z,41.43
2019-01-13T02:59:10.617Z,41.43
2019-01-13T03:00:10.016Z,41.43
2019-01-13T03:01:10.132Z,41.42
2019-01-13T03:02:10.295Z,41.36
2019-01-13T03:03:10.324Z,41.43
2019-01-13T03:04:12.081Z,41.44
2019-01-13T03:05:10.338Z,41.4
2019-01-13T03:06:10.450Z,41.43
2019-01-13T03:07:10.373Z,41.42
2019-01-13T03:08:11.098Z,41.46
2019-01-13T03:09:10.185Z,41.43
2019-01-13T03:10:10.270Z,41.36
2019-01-13T03:11:09.985Z,41.4
2019-01-13T03:12:10.114Z,41.37
2019-01-13T03:13:10.319Z,41.44
2019-01-13T03:14:10.284Z,41.36
2019-01-13T03:15:10.134Z,41.39
2019-01-13T03:16:10.554Z,41.46
2019-01-13T03:17:10.338Z,41.43
2019-01-13T03:18:10.134Z,41.46
2019-01-13T03:19:10.297Z,41.35
2019-01-13T03:20:10.283Z,41.45
2019-01-13T03:21:10.305Z,41.43
2019-01-13T03:22:10.276Z,41.44
2019-01-13T03:23:10.241Z,41.43
2019-01-13T03:24:10.346Z,41.47
2019-01-13T03:25:12.353Z,41.5
2019-01-13T03:26:10.297Z,41.44
2019-01-13T03:27:10.242Z,41.47
2019-01-13T03:28:10.109Z,41.41
2019-01-13T03:29:10.326Z,41.47
2019-01-13T03:30:10.544Z,41.4
2019-01-13T03:31:12.773Z,41.42
2019-01-13T03:32:10.368Z,41.49
2019-01-13T03:33:10.458Z,41.45
2019-01-13T03:34:10.117Z,41.46
2019-01-13T03:35:10.466Z,41.45
2019-01-13T03:36:10.463Z,41.43
2019-01-13T03:37:09.976Z,41.41
2019-01-13T03:38:10.708Z,41.44
2019-01-13T03:39:12.122Z,41.42
2019-01-13T03:40:11.010Z,41.45
2019-01-13T03:41:10.264Z,41.51
2019-01-13T03:42:10.208Z,41.42
2019-01-13T03:43:11.403Z,41.45
2019-01-13T03:44:10.540Z,41.49
2019-01-13T03:45:10.340Z,41.43
2019-01-13T03:46:09.994Z,41.51
2019-01-13T03:47:10.307Z,41.43
2019-01-13T03:48:10.320Z,41.52
2019-01-13T03:49:10.217Z,41.48
2019-01-13T03:50:10.678Z,41.43
2019-01-13T03:51:10.799Z,41.43
2019-01-13T03:52:10.163Z,41.43
2019-01-13T03:53:10.114Z,41.45
2019-01-13T03:54:10.081Z,41.46
2019-01-13T03:55:10.214Z,41.42
2019-01-13T03:56:10.925Z,41.5
2019-01-13T03:57:10.311Z,41.47
2019-01-13T03:58:11.359Z,41.51
2019-01-13T03:59:10.144Z,41.45
2019-01-13T04:00:10.118Z,41.46
2019-01-13T04:01:18.851Z,41.49
2019-01-13T04:02:10.463Z,41.51
2019-01-13T04:03:10.035Z,41.45
2019-01-13T04:04:11.175Z,41.48
2019-01-13T04:05:10.275Z,41.49
2019-01-13T04:06:10.063Z,41.5
2019-01-13T04:07:10.132Z,41.48
2019-01-13T04:08:10.896Z,41.51
2019-01-13T04:09:10.424Z,41.46
2019-01-13T04:10:10.415Z,41.45
2019-01-13T04:11:10.326Z,41.49
2019-01-13T04:12:10.420Z,41.5
2019-01-13T04:13:10.223Z,41.47
2019-01-13T04:14:10.456Z,41.53
2019-01-13T04:15:10.554Z,41.52
2019-01-13T04:16:10.446Z,41.54
2019-01-13T04:17:10.202Z,41.53
2019-01-13T04:18:10.566Z,41.56
2019-01-13T04:19:10.160Z,41.51
2019-01-13T04:20:10.099Z,41.53
2019-01-13T04:21:10.463Z,41.58
2019-01-13T04:22:10.330Z,41.56
2019-01-13T04:23:10.046Z,41.48
2019-01-13T04:24:12.025Z,41.49
2019-01-13T04:25:10.016Z,41.55
2019-01-13T04:26:10.171Z,41.52
2019-01-13T04:27:10.199Z,41.5
2019-01-13T04:28:10.250Z,41.54
2019-01-13T04:29:10.342Z,41.51
2019-01-13T04:30:10.559Z,41.56
2019-01-13T04:31:10.786Z,41.56
2019-01-13T04:32:10.208Z,41.57
2019-01-13T04:33:10.294Z,41.53
2019-01-13T04:34:10.283Z,41.56
2019-01-13T04:35:12.082Z,41.52
2019-01-13T04:36:10.108Z,41.51
2019-01-13T04:37:11.227Z,41.46
2019-01-13T04:38:10.403Z,41.51
2019-01-13T04:39:10.169Z,41.5
2019-01-13T04:40:10.256Z,41.46
2019-01-13T04:41:10.400Z,41.51
2019-01-13T04:42:10.345Z,41.49
2019-01-13T04:43:10.241Z,41.45
2019-01-13T04:44:10.295Z,41.5
2019-01-13T04:45:10.353Z,41.53
2019-01-13T04:46:10.143Z,41.45
2019-01-13T04:47:10.079Z,41.47
2019-01-13T04:48:10.401Z,41.5
2019-01-13T04:49:10.499Z,41.46
2019-01-13T04:50:10.400Z,41.49
2019-01-13T04:51:10.059Z,41.45
2019-01-13T04:52:10.198Z,41.43
2019-01-13T04:53:10.148Z,41.38
2019-01-13T04:54:10.119Z,41.4
2019-01-13T04:55:10.430Z,41.43
2019-01-13T04:56:10.665Z,41.37
2019-01-13T04:57:10.120Z,41.39
2019-01-13T04:58:10.264Z,41.43
2019-01-13T04:59:10.146Z,41.34
2019-01-13T05:00:10.255Z,41.37
2019-01-13T05:01:10.130Z,41.41
2019-01-13T05:02:10.107Z,41.41
2019-01-13T05:03:10.260Z,41.42
2019-01-13T05:04:10.135Z,41.35
2019-01-13T05:05:09.924Z,41.32
2019-01-13T05:06:10.318Z,41.35
2019-01-13T05:07:10.143Z,41.33
2019-01-13T05:08:10.221Z,41.28
2019-01-13T05:09:09.985Z,41.29
2019-01-13T05:10:10.327Z,41.26
2019-01-13T05:11:10.222Z,41.28
2019-01-13T05:12:09.970Z,41.25
2019-01-13T05:13:10.190Z,41.22
2019-01-13T05:14:10.441Z,41.29
2019-01-13T05:15:10.483Z,41.16
2019-01-13T05:16:10.291Z,41.13
2019-01-13T05:17:10.263Z,41.12
2019-01-13T05:18:10.499Z,41.12
2019-01-13T05:19:10.212Z,41.1
2019-01-13T05:20:10.247Z,41.16
2019-01-13T05:21:10.708Z,41.17
2019-01-13T05:22:10.611Z,41.04
2019-01-13T05:23:10.089Z,41.03
2019-01-13T05:24:10.364Z,41.05
2019-01-13T05:25:10.144Z,41.03
2019-01-13T05:26:09.960Z,41.06
2019-01-13T05:27:10.081Z,41.04
2019-01-13T05:28:10.472Z,41.1
2019-01-13T05:29:10.087Z,41.07
2019-01-13T05:30:10.158Z,41.04
2019-01-13T05:31:10.145Z,41.01
2019-01-13T05:32:10.325Z,40.94
2019-01-13T05:33:10.080Z,40.97
2019-01-13T05:34:10.332Z,41.04
2019-01-13T05:35:10.139Z,41.02
2019-01-13T05:36:11.343Z,40.99
2019-01-13T05:37:10.306Z,41
2019-01-13T05:38:10.233Z,41.04
2019-01-13T05:39:10.890Z,41
2019-01-13T05:40:10.170Z,40.98
2019-01-13T05:41:10.468Z,40.92
2019-01-13T05:42:10.778Z,41.04
2019-01-13T05:43:10.060Z,41.02
2019-01-13T05:44:10.711Z,41.09
2019-01-13T05:45:10.418Z,41.01
2019-01-13T05:46:10.388Z,40.93
2019-01-13T05:47:10.351Z,40.91
2019-01-13T05:48:10.741Z,40.99
2019-01-13T05:49:10.012Z,40.97
2019-01-13T05:50:10.184Z,40.96
2019-01-13T05:51:10.417Z,40.99
2019-01-13T05:52:10.260Z,40.93
2019-01-13T05:53:10.516Z,40.94
2019-01-13T05:54:10.572Z,40.94
2019-01-13T05:55:10.481Z,41.02
2019-01-13T05:56:10.342Z,40.97
2019-01-13T05:57:10.364Z,41
2019-01-13T05:58:10.139Z,40.93
2019-01-13T05:59:10.382Z,40.98
2019-01-13T06:00:10.311Z,40.92
2019-01-13T06:01:10.128Z,40.94
2019-01-13T06:02:10.752Z,40.95
2019-01-13T06:03:10.150Z,40.98
2019-01-13T06:04:10.357Z,40.95
2019-01-13T06:05:10.310Z,40.91
2019-01-13T06:06:09.989Z,40.96
2019-01-13T06:07:10.823Z,40.92
2019-01-13T06:08:10.343Z,40.91
2019-01-13T06:09:09.967Z,40.93
2019-01-13T06:10:10.695Z,40.89
2019-01-13T06:11:10.034Z,40.87
2019-01-13T06:12:10.379Z,40.86
2019-01-13T06:13:10.775Z,40.95
2019-01-13T06:14:10.079Z,40.91
2019-01-13T06:15:10.082Z,40.9
2019-01-13T06:16:10.490Z,40.96
2019-01-13T06:17:10.071Z,40.9
2019-01-13T06:18:10.191Z,40.91
2019-01-13T06:19:11.046Z,40.9
2019-01-13T06:20:10.471Z,40.88
2019-01-13T06:21:11.077Z,40.89
2019-01-13T06:22:10.262Z,40.88
2019-01-13T06:23:10.140Z,40.86
2019-01-13T06:24:10.096Z,40.87
2019-01-13T06:25:10.142Z,40.85
2019-01-13T06:26:10.081Z,40.88
2019-01-13T06:27:10.113Z,40.91
2019-01-13T06:28:10.187Z,40.88
2019-01-13T06:29:10.809Z,40.84
2019-01-13T06:30:10.056Z,40.9
2019-01-13T06:31:10.335Z,40.88
2019-01-13T06:32:10.317Z,40.8
2019-01-13T06:33:10.020Z,40.87
2019-01-13T06:34:10.093Z,40.86
2019-01-13T06:35:10.161Z,40.8
2019-01-13T06:36:12.032Z,40.81
2019-01-13T06:37:10.282Z,40.82
2019-01-13T06:38:10.347Z,40.85
2019-01-13T06:39:09.939Z,40.82
2019-01-13T06:40:09.997Z,40.81
2019-01-13T06:41:10.490Z,40.8
2019-01-13T06:42:10.049Z,40.82
2019-01-13T06:43:10.217Z,40.82
2019-01-13T06:44:10.165Z,40.77
2019-01-13T06:45:10.043Z,40.67
2019-01-13T06:46:10.830Z,40.75
2019-01-13T06:47:10.219Z,40.82
2019-01-13T06:48:10.230Z,41.02
2019-01-13T06:49:10.147Z,40.92
2019-01-13T06:50:11.158Z,41.04
2019-01-13T06:51:09.994Z,41
2019-01-13T06:52:10.052Z,40.94
2019-01-13T06:53:10.156Z,40.98
2019-01-13T06:54:10.072Z,40.75
2019-01-13T06:55:10.194Z,40.66
2019-01-13T06:56:09.913Z,40.54
2019-01-13T06:57:09.999Z,40.52
2019-01-13T06:58:10.806Z,40.74
2019-01-13T06:59:10.128Z,40.79
2019-01-13T07:00:10.156Z,40.92
2019-01-13T07:01:10.324Z,40.92
2019-01-13T07:02:10.037Z,40.95
2019-01-13T07:03:10.776Z,40.69
2019-01-13T07:04:10.214Z,40.78
2019-01-13T07:05:10.247Z,40.84
2019-01-13T07:06:10.357Z,41.07
2019-01-13T07:07:10.468Z,41.14
2019-01-13T07:08:10.176Z,41.37
2019-01-13T07:09:10.329Z,41.32
2019-01-13T07:10:13.003Z,41.35
2019-01-13T07:11:10.402Z,41.24
2019-01-13T07:12:10.423Z,41.3
2019-01-13T07:13:10.109Z,41.29
2019-01-13T07:14:10.315Z,41.24
2019-01-13T07:15:10.157Z,41.22
2019-01-13T07:16:10.722Z,41.19
2019-01-13T07:17:10.340Z,41.13
2019-01-13T07:18:10.481Z,41.17
2019-01-13T07:19:11.037Z,41.2
2019-01-13T07:20:10.151Z,41.06
2019-01-13T07:21:10.287Z,41.07
2019-01-13T07:22:10.022Z,40.98
2019-01-13T07:23:10.127Z,41.01
2019-01-13T07:24:10.410Z,41.01
2019-01-13T07:25:10.016Z,41.06
2019-01-13T07:26:11.182Z,41.04
2019-01-13T07:27:12.096Z,41.11
2019-01-13T07:28:10.113Z,41.07
2019-01-13T07:29:10.907Z,41.02
2019-01-13T07:30:10.657Z,41.04
2019-01-13T07:31:10.222Z,41.05
2019-01-13T07:32:11.068Z,40.9
2019-01-13T07:33:10.226Z,40.96
2019-01-13T07:34:09.994Z,41.07
2019-01-13T07:35:10.258Z,41.18
2019-01-13T07:36:10.069Z,41.14
2019-01-13T07:37:10.695Z,41.05
2019-01-13T07:38:10.415Z,41
2019-01-13T07:39:10.265Z,40.96
2019-01-13T07:40:10.052Z,41.03
2019-01-13T07:41:10.622Z,41.1
2019-01-13T07:42:11.938Z,41.11
2019-01-13T07:43:10.173Z,41.16
2019-01-13T07:44:10.016Z,41.07
2019-01-13T07:45:10.010Z,40.99
2019-01-13T07:46:10.333Z,41.22
2019-01-13T07:47:10.062Z,41.05
2019-01-13T07:48:10.143Z,41.18
2019-01-13T07:49:10.254Z,40.97
2019-01-13T07:50:10.460Z,41.16
2019-01-13T07:51:10.358Z,41.17
2019-01-13T07:52:10.053Z,41.16
2019-01-13T07:53:10.112Z,41.04
2019-01-13T07:54:10.475Z,41.19
2019-01-13T07:55:10.055Z,40.92
2019-01-13T07:56:10.917Z,40.86
2019-01-13T07:57:10.163Z,41.02
2019-01-13T07:58:09.867Z,40.88
2019-01-13T07:59:10.067Z,40.97
2019-01-13T08:00:10.086Z,40.91
2019-01-13T08:01:10.058Z,40.82
2019-01-13T08:02:10.240Z,40.81
2019-01-13T08:03:10.091Z,40.85
2019-01-13T08:04:10.352Z,40.81
2019-01-13T08:05:10.358Z,40.81
2019-01-13T08:06:10.211Z,40.84
2019-01-13T08:07:09.899Z,40.84
2019-01-13T08:08:11.207Z,40.72
2019-01-13T08:09:10.393Z,40.81
2019-01-13T08:10:10.066Z,40.8
2019-01-13T08:11:09.950Z,40.81
2019-01-13T08:12:10.316Z,40.74
2019-01-13T08:13:09.936Z,40.8
2019-01-13T08:14:10.360Z,40.65
2019-01-13T08:15:11.272Z,40.71
2019-01-13T08:16:10.150Z,40.65
2019-01-13T08:17:10.411Z,40.8
2019-01-13T08:18:10.250Z,40.74
2019-01-13T08:19:10.364Z,40.73
2019-01-13T08:20:10.210Z,40.79
2019-01-13T08:21:10.407Z,40.72
2019-01-13T08:22:10.028Z,40.76
2019-01-13T08:23:10.278Z,40.7
2019-01-13T08:24:10.030Z,40.75
2019-01-13T08:25:10.198Z,40.77
2019-01-13T08:26:09.965Z,40.72
2019-01-13T08:27:10.008Z,40.72
2019-01-13T08:28:10.410Z,40.71
2019-01-13T08:29:10.044Z,40.71
2019-01-13T08:30:10.359Z,40.76
2019-01-13T08:31:09.962Z,40.73
2019-01-13T08:32:09.875Z,40.72
2019-01-13T08:33:10.067Z,40.68
2019-01-13T08:34:10.189Z,40.73
2019-01-13T08:35:10.087Z,40.76
2019-01-13T08:36:10.142Z,40.76
2019-01-13T08:37:10.222Z,40.75
2019-01-13T08:38:10.311Z,40.72
2019-01-13T08:39:10.105Z,40.7
2019-01-13T08:40:10.288Z,40.68
2019-01-13T08:41:09.990Z,40.71
2019-01-13T08:42:10.168Z,40.71
2019-01-13T08:43:10.246Z,40.69
2019-01-13T08:44:10.086Z,40.74
2019-01-13T08:45:10.434Z,40.7
2019-01-13T08:46:10.272Z,40.71
2019-01-13T08:47:10.369Z,40.7
2019-01-13T08:48:10.404Z,40.69
2019-01-13T08:49:10.389Z,40.67
2019-01-13T08:50:10.007Z,40.67
2019-01-13T08:51:10.279Z,40.69
2019-01-13T08:52:10.123Z,40.72
2019-01-13T08:53:10.174Z,40.68
2019-01-13T08:54:10.179Z,40.68
2019-01-13T08:55:11.084Z,40.67
2019-01-13T08:56:10.144Z,40.68
2019-01-13T08:57:10.234Z,40.68
2019-01-13T08:58:11.912Z,40.66
2019-01-13T08:59:10.090Z,40.64
2019-01-13T09:00:10.258Z,40.64
2019-01-13T09:01:10.279Z,40.64
2019-01-13T09:02:10.780Z,40.62
2019-01-13T09:03:10.377Z,40.61
2019-01-13T09:04:10.660Z,40.66
2019-01-13T09:05:10.392Z,40.64
2019-01-13T09:06:09.976Z,40.62
2019-01-13T09:07:10.609Z,40.61
2019-01-13T09:08:11.102Z,40.63
2019-01-13T09:09:10.108Z,40.63
2019-01-13T09:10:10.150Z,40.62
2019-01-13T09:11:10.225Z,40.6
2019-01-13T09:12:10.052Z,40.63
2019-01-13T09:13:11.154Z,40.62
2019-01-13T09:14:10.063Z,40.6
2019-01-13T09:15:10.099Z,40.62
2019-01-13T09:16:10.499Z,40.64
2019-01-13T09:17:09.981Z,40.6
2019-01-13T09:18:10.791Z,40.61
2019-01-13T09:19:10.015Z,40.6
2019-01-13T09:20:10.050Z,40.63
2019-01-13T09:21:12.062Z,40.61
2019-01-13T09:22:09.980Z,40.58
2019-01-13T09:23:10.218Z,40.59
2019-01-13T09:24:11.994Z,40.6
2019-01-13T09:25:10.303Z,40.56
2019-01-13T09:26:10.250Z,40.55
2019-01-13T09:27:10.358Z,40.53
2019-01-13T09:28:10.060Z,40.55
2019-01-13T09:29:11.183Z,40.56
2019-01-13T09:30:10.233Z,40.55
2019-01-13T09:31:10.051Z,40.56
2019-01-13T09:32:10.051Z,40.57
2019-01-13T09:33:10.498Z,40.53
2019-01-13T09:34:09.938Z,40.56
2019-01-13T09:35:10.036Z,40.51
2019-01-13T09:36:10.216Z,40.54
2019-01-13T09:37:09.937Z,40.91
2019-01-13T09:38:10.233Z,41.32
2019-01-13T09:39:10.104Z,40.86
2019-01-13T09:40:09.948Z,41.2
2019-01-13T09:41:10.145Z,41.34
2019-01-13T09:42:09.891Z,41.8
2019-01-13T09:43:11.898Z,41.55
2019-01-13T09:44:10.340Z,41.5
2019-01-13T09:45:10.978Z,41.49
2019-01-13T09:46:10.179Z,41.54
2019-01-13T09:47:10.222Z,41.4
2019-01-13T09:48:10.040Z,41.74
2019-01-13T09:49:11.336Z,41.67
2019-01-13T09:50:10.166Z,42.42
2019-01-13T09:51:10.033Z,41.82
2019-01-13T09:52:10.404Z,41.81
2019-01-13T09:53:10.369Z,42.31
2019-01-13T09:54:09.934Z,41.79
2019-01-13T09:55:10.015Z,41.29
2019-01-13T09:56:10.339Z,41.12
2019-01-13T09:57:10.341Z,41.16
2019-01-13T09:58:10.017Z,41.66
2019-01-13T09:59:10.230Z,41.48
2019-01-13T10:00:09.910Z,41.63
2019-01-13T10:01:10.278Z,41.77
2019-01-13T10:02:10.201Z,42.3
2019-01-13T10:03:10.313Z,42.29
2019-01-13T10:04:10.003Z,41.72
2019-01-13T10:05:10.237Z,42.28
2019-01-13T10:06:09.998Z,42.54
2019-01-13T10:07:10.145Z,42.46
2019-01-13T10:08:10.508Z,42.11
2019-01-13T10:09:09.971Z,42.13
2019-01-13T10:10:10.085Z,42.45
2019-01-13T10:11:10.098Z,41.92
2019-01-13T10:12:10.044Z,42.07
2019-01-13T10:13:10.150Z,42.4
2019-01-13T10:14:09.818Z,42.17
2019-01-13T10:15:10.062Z,41.97
2019-01-13T10:16:10.268Z,42.26
2019-01-13T10:17:10.329Z,41.97
2019-01-13T10:18:09.789Z,42
2019-01-13T10:19:10.010Z,42.25
2019-01-13T10:20:09.953Z,41.75
2019-01-13T10:21:10.006Z,42.21
2019-01-13T10:22:10.080Z,42.2
2019-01-13T10:23:09.940Z,42.31
2019-01-13T10:24:10.155Z,41.88
2019-01-13T10:25:09.991Z,41.62
2019-01-13T10:26:10.145Z,41.84
2019-01-13T10:27:10.010Z,41.93
2019-01-13T10:28:09.849Z,42.19
2019-01-13T10:29:10.071Z,42.26
2019-01-13T10:30:10.146Z,41.85
2019-01-13T10:31:10.168Z,41.64
2019-01-13T10:32:09.986Z,41.78
2019-01-13T10:33:10.148Z,41.97
2019-01-13T10:34:10.522Z,42.08
2019-01-13T10:35:09.873Z,41.85
2019-01-13T10:36:10.185Z,41.95
2019-01-13T10:37:09.861Z,41.64
2019-01-13T10:38:10.487Z,41.68
2019-01-13T10:39:10.348Z,41.89
2019-01-13T10:40:10.146Z,41.63
2019-01-13T10:41:10.003Z,41.74
2019-01-13T10:42:10.333Z,41.45
2019-01-13T10:43:10.658Z,41.95
2019-01-13T10:44:10.894Z,41.68
2019-01-13T10:45:10.476Z,41.72
2019-01-13T10:46:10.130Z,41.95
2019-01-13T10:47:10.091Z,41.93
2019-01-13T10:48:10.382Z,42.05
2019-01-13T10:49:11.214Z,41.86
2019-01-13T10:50:10.024Z,41.8
2019-01-13T10:51:10.246Z,41.7
2019-01-13T10:52:09.824Z,41.52
2019-01-13T10:52:58.911Z,41.96
2019-01-13T10:54:17.147Z,40.95
2019-01-13T10:55:16.869Z,40.77
2019-01-13T10:56:16.969Z,41.03
2019-01-13T10:57:17.128Z,41.49
2019-01-13T10:58:17.306Z,40.85
2019-01-13T10:59:17.243Z,40.9
2019-01-13T10:59:59.023Z,40.79
2019-01-13T11:00:59.473Z,40.65
2019-01-13T11:01:59.572Z,42.82
2019-01-13T11:03:03.085Z,40.35
2019-01-13T11:03:59.183Z,40.4
2019-01-13T11:04:59.513Z,40.36
2019-01-13T11:06:02.440Z,40.28
2019-01-13T11:06:59.925Z,40.24
2019-01-13T11:07:59.953Z,40.33
2019-01-13T11:09:00.031Z,40.21
2019-01-13T11:09:59.749Z,40.2
2019-01-13T11:11:02.107Z,40.15
2019-01-13T11:11:59.353Z,40.08
2019-01-13T11:12:59.294Z,40.05
2019-01-13T11:14:01.632Z,40.2
2019-01-13T11:14:39.146Z,41.1
2019-01-13T11:15:38.751Z,40.86
2019-01-13T11:16:41.296Z,41.18
2019-01-13T11:17:38.712Z,40.36
2019-01-13T11:18:38.814Z,40.95
2019-01-13T11:19:38.308Z,41
2019-01-13T11:20:38.962Z,40.6
2019-01-13T11:21:39.018Z,40.71
2019-01-13T11:22:38.750Z,41.03
2019-01-13T11:23:39.084Z,40.66
2019-01-13T11:24:38.766Z,40.73
2019-01-13T11:25:38.475Z,41.01
2019-01-13T11:26:38.359Z,40.92
2019-01-13T11:27:38.497Z,41.11
2019-01-13T11:28:38.849Z,41.16
2019-01-13T11:29:38.477Z,40.85
2019-01-13T11:30:38.861Z,41.08
2019-01-13T11:31:38.322Z,41.35
2019-01-13T11:32:38.714Z,41.32
2019-01-13T11:33:38.334Z,41.09
2019-01-13T11:34:38.314Z,41.23
2019-01-13T11:35:38.803Z,41.07
2019-01-13T11:36:38.651Z,41.46
2019-01-13T11:37:38.599Z,41.05
2019-01-13T11:38:38.661Z,41.04
2019-01-13T11:39:41.128Z,41.14
2019-01-13T11:40:39.218Z,41.21
2019-01-13T11:41:38.511Z,41.26
2019-01-13T11:42:38.569Z,41.37
2019-01-13T11:43:38.243Z,41.22
2019-01-13T11:44:38.707Z,40.95
2019-01-13T11:45:38.900Z,40.92
2019-01-13T11:46:38.358Z,41.43
2019-01-13T11:47:38.830Z,41.44
2019-01-13T11:48:38.932Z,41.18
2019-01-13T11:49:39.205Z,40.86
2019-01-13T11:50:38.755Z,40.82
2019-01-13T11:51:38.635Z,40.92
2019-01-13T11:52:38.705Z,40.88
2019-01-13T11:53:38.691Z,40.8
2019-01-13T11:54:40.464Z,40.73
2019-01-13T11:55:38.667Z,40.77
2019-01-13T11:56:38.361Z,40.7
2019-01-13T11:57:38.717Z,41.17
2019-01-13T11:58:38.713Z,41.05
2019-01-13T11:59:38.740Z,40.92
2019-01-13T12:00:38.774Z,40.9
2019-01-13T12:01:38.766Z,40.93
2019-01-13T12:02:38.404Z,40.89
2019-01-13T12:03:38.730Z,40.91
2019-01-13T12:04:38.705Z,40.77
2019-01-13T12:05:38.477Z,41.21
2019-01-13T12:06:38.846Z,40.82
2019-01-13T12:07:38.827Z,41.15
2019-01-13T12:08:39.726Z,40.84
2019-01-13T12:09:38.280Z,40.78
2019-01-13T12:10:38.412Z,40.85
2019-01-13T12:11:38.182Z,41.12
2019-01-13T12:12:38.289Z,40.88
2019-01-13T12:13:38.626Z,40.9
2019-01-13T12:14:38.739Z,41.48
2019-01-13T12:15:38.540Z,41.07
2019-01-13T12:16:38.929Z,41.34
2019-01-13T12:17:38.358Z,41.31
2019-01-13T12:18:41.015Z,41.11
2019-01-13T12:19:40.360Z,41.21
2019-01-13T12:20:39.134Z,40.82
2019-01-13T12:21:38.300Z,41.02
2019-01-13T12:22:38.375Z,41.28
2019-01-13T12:23:38.664Z,41.02
2019-01-13T12:24:38.587Z,41.28
2019-01-13T12:25:38.393Z,41.35
2019-01-13T12:26:38.741Z,41.11
2019-01-13T12:27:38.446Z,41.35
2019-01-13T12:28:38.316Z,40.96
2019-01-13T12:29:38.518Z,41.3
2019-01-13T12:30:38.529Z,41.32
2019-01-13T12:31:38.369Z,41.13
2019-01-13T12:32:38.468Z,41.12
2019-01-13T12:33:38.410Z,40.96
2019-01-13T12:34:38.499Z,41.12
2019-01-13T12:35:38.787Z,41.01
2019-01-13T12:36:38.332Z,40.86
2019-01-13T12:37:38.840Z,41.17
2019-01-13T12:38:39.429Z,41.19
2019-01-13T12:39:38.449Z,41.12
2019-01-13T12:40:38.990Z,41.05
2019-01-13T12:41:38.570Z,41.13
2019-01-13T12:42:38.125Z,41.02
2019-01-13T12:43:39.171Z,41.23
2019-01-13T12:44:38.642Z,41.13
2019-01-13T12:45:38.482Z,40.88
2019-01-13T12:46:38.994Z,40.84
2019-01-13T12:47:38.566Z,40.84
2019-01-13T12:48:38.394Z,40.67
2019-01-13T12:49:38.345Z,40.83
2019-01-13T12:50:39.139Z,40.66
2019-01-13T12:51:38.780Z,40.65
2019-01-13T12:52:38.666Z,40.76
2019-01-13T12:53:38.471Z,40.6
2019-01-13T12:54:38.481Z,40.62